Time;durP1;ratioP1;P1;durP2;ratioP2;P2;SDS_P1;SDS_P2;PMS_P1;PMS_P2;Temp;Humidity;BMP_temperature;BMP_pressure;BME280_temperature;BME280_humidity;BME280_pressure;Samples;Min_cycle;Max_cycle;Signal;HPM_P1;HPM_P2
2023/05/18 00:00:30;;;;;;;5.47;1.83;;;9.10;71.10;;;;;;5065006;28;20130;-67
2023/05/18 00:02:57;;;;;;;5.57;1.50;;;9.00;71.20;;;;;;5067592;28;20055;-68
2023/05/18 00:05:26;;;;;;;4.70;1.75;;;9.00;71.30;;;;;;5068634;28;20094;-68
2023/05/18 00:07:53;;;;;;;5.65;2.20;;;9.00;71.10;;;;;;5065509;28;20458;-67
2023/05/18 00:10:20;;;;;;;6.07;2.17;;;9.00;71.20;;;;;;5065646;28;20110;-64
2023/05/18 00:12:47;;;;;;;6.60;2.08;;;9.00;71.40;;;;;;5069864;28;20048;-67
2023/05/18 00:15:14;;;;;;;3.92;1.40;;;9.00;71.40;;;;;;5068901;28;20044;-67
2023/05/18 00:17:41;;;;;;;7.40;2.17;;;9.00;71.50;;;;;;5069558;28;20129;-70
2023/05/18 00:20:09;;;;;;;6.32;2.30;;;8.90;71.40;;;;;;5067376;28;20053;-70
2023/05/18 00:22:38;;;;;;;8.95;2.28;;;8.90;71.70;;;;;;5070178;28;20036;-66
2023/05/18 00:25:05;;;;;;;8.55;2.42;;;8.80;71.90;;;;;;5068084;28;20438;-67
2023/05/18 00:27:32;;;;;;;3.95;1.77;;;8.80;72.20;;;;;;5064354;28;20041;-67
2023/05/18 00:29:59;;;;;;;6.65;2.05;;;8.70;72.10;;;;;;5068023;28;20504;-67
2023/05/18 00:32:26;;;;;;;5.63;1.77;;;8.70;72.00;;;;;;5048713;28;20412;-67
2023/05/18 00:34:53;;;;;;;7.00;2.15;;;8.80;71.90;;;;;;5068100;28;20050;-67
2023/05/18 00:37:22;;;;;;;6.70;2.30;;;8.80;71.80;;;;;;5068291;28;20106;-61
2023/05/18 00:39:51;;;;;;;7.88;2.45;;;8.80;71.60;;;;;;5070439;28;20127;-61
2023/05/18 00:42:18;;;;;;;8.43;2.30;;;8.80;71.50;;;;;;5058110;28;20143;-61
2023/05/18 00:44:46;;;;;;;8.38;2.35;;;8.70;71.60;;;;;;5066437;28;20091;-62
2023/05/18 00:47:14;;;;;;;10.10;2.60;;;8.70;71.80;;;;;;5049369;28;20083;-60
2023/05/18 00:49:41;;;;;;;7.03;2.20;;;8.60;71.90;;;;;;5049475;28;20048;-61
2023/05/18 00:52:08;;;;;;;6.88;2.15;;;8.60;72.20;;;;;;5063652;28;20048;-61
2023/05/18 00:54:35;;;;;;;6.22;2.13;;;8.60;72.30;;;;;;5061123;28;20124;-63
2023/05/18 00:57:05;;;;;;;5.40;1.88;;;8.60;72.40;;;;;;5038139;28;20167;-61
2023/05/18 00:59:33;;;;;;;7.25;2.30;;;8.60;72.40;;;;;;5062412;28;20068;-62
2023/05/18 01:02:01;;;;;;;7.88;2.42;;;8.60;72.40;;;;;;5067200;28;20152;-62
2023/05/18 01:04:30;;;;;;;6.80;2.28;;;8.50;72.70;;;;;;5065417;28;20198;-61
2023/05/18 01:07:05;;;;;;;6.22;2.83;;;8.50;72.60;;;;;;5057799;28;20048;-62
2023/05/18 01:09:33;;;;;;;10.55;3.72;;;8.50;72.50;;;;;;5064657;28;20053;-61
2023/05/18 01:12:06;;;;;;;9.40;2.78;;;8.50;72.60;;;;;;5067190;28;20076;-61
2023/05/18 01:14:38;;;;;;;8.60;2.90;;;8.50;72.70;;;;;;5056552;28;20657;-61
2023/05/18 01:17:13;;;;;;;6.13;2.72;;;8.40;72.80;;;;;;5042149;28;20044;-61
2023/05/18 01:20:09;;;;;;;7.80;3.05;;;8.30;73.00;;;;;;5061057;28;20050;-60
2023/05/18 01:22:49;;;;;;;4.85;2.13;;;8.30;73.20;;;;;;5059466;28;20390;-61
2023/05/18 01:25:30;;;;;;;7.37;2.57;;;8.20;73.30;;;;;;5063568;28;20056;-61
2023/05/18 01:28:04;;;;;;;7.55;2.90;;;8.10;73.60;;;;;;5040559;28;20051;-61
2023/05/18 01:30:33;;;;;;;5.80;2.25;;;8.10;73.80;;;;;;5046000;28;20047;-61
2023/05/18 01:33:00;;;;;;;5.88;2.78;;;8.00;73.90;;;;;;5066441;28;20450;-61
2023/05/18 01:35:31;;;;;;;6.47;2.70;;;8.00;74.00;;;;;;5064185;28;20041;-61
2023/05/18 01:37:58;;;;;;;8.20;2.63;;;8.00;74.10;;;;;;5064997;28;20487;-68
2023/05/18 01:40:27;;;;;;;7.30;2.95;;;8.00;73.90;;;;;;5038525;28;20495;-68
2023/05/18 01:43:00;;;;;;;6.55;2.85;;;8.10;73.70;;;;;;5061849;28;20049;-67
2023/05/18 01:45:31;;;;;;;7.28;2.63;;;8.00;73.70;;;;;;5041273;28;20045;-68
2023/05/18 01:48:00;;;;;;;4.93;2.10;;;8.00;73.80;;;;;;5043582;28;20052;-68
2023/05/18 01:50:36;;;;;;;5.75;2.20;;;8.00;73.80;;;;;;5066019;28;20052;-68
2023/05/18 01:53:10;;;;;;;6.70;2.33;;;8.00;73.90;;;;;;5060187;28;20116;-68
2023/05/18 01:55:37;;;;;;;8.80;2.38;;;8.00;73.80;;;;;;5041752;28;20040;-67
2023/05/18 01:58:06;;;;;;;7.28;2.60;;;7.90;73.90;;;;;;5052777;28;20374;-66
2023/05/18 02:00:34;;;;;;;7.53;2.47;;;7.90;74.00;;;;;;5042806;28;20119;-70
2023/05/18 02:03:02;;;;;;;5.28;1.80;;;7.90;74.00;;;;;;5065887;28;20561;-69
2023/05/18 02:05:32;;;;;;;4.40;2.20;;;7.90;74.10;;;;;;5038955;28;20056;-69
2023/05/18 02:07:59;;;;;;;6.13;2.42;;;7.90;73.90;;;;;;5047073;28;20793;-69
2023/05/18 02:10:27;;;;;;;7.78;2.38;;;7.90;73.70;;;;;;5042370;28;20135;-69
2023/05/18 02:12:54;;;;;;;10.85;2.65;;;7.90;73.70;;;;;;5045920;28;20048;-69
2023/05/18 02:15:21;;;;;;;7.43;2.30;;;7.80;73.80;;;;;;5042568;28;20053;-69
2023/05/18 02:17:50;;;;;;;7.03;2.10;;;7.70;74.10;;;;;;5046066;28;20064;-69
2023/05/18 02:20:17;;;;;;;5.45;2.17;;;7.70;74.10;;;;;;5062968;28;20045;-69
2023/05/18 02:22:45;;;;;;;7.03;2.03;;;7.70;74.20;;;;;;5062810;28;20106;-71
2023/05/18 02:25:12;;;;;;;6.28;2.08;;;7.70;74.30;;;;;;5056453;28;20056;-69
2023/05/18 02:27:39;;;;;;;5.97;2.22;;;7.70;74.20;;;;;;5042697;28;20507;-71
2023/05/18 02:30:08;;;;;;;5.30;1.75;;;7.60;74.30;;;;;;5043643;28;20071;-71
2023/05/18 02:32:37;;;;;;;5.28;1.77;;;7.60;74.50;;;;;;5068281;28;20090;-66
2023/05/18 02:35:09;;;;;;;7.38;2.10;;;7.60;74.40;;;;;;5061053;28;20515;-66
2023/05/18 02:37:38;;;;;;;6.97;2.00;;;7.60;74.30;;;;;;5044347;28;20135;-66
2023/05/18 02:40:07;;;;;;;8.00;2.28;;;7.60;74.40;;;;;;5045537;28;20048;-66
2023/05/18 02:42:34;;;;;;;6.55;2.38;;;7.50;74.50;;;;;;5062611;28;20045;-70
2023/05/18 02:45:02;;;;;;;5.85;2.38;;;7.50;74.50;;;;;;5063750;28;20086;-69
2023/05/18 02:47:30;;;;;;;5.95;1.98;;;7.40;74.60;;;;;;5041346;28;20123;-61
2023/05/18 02:49:57;;;;;;;6.97;2.22;;;7.40;74.70;;;;;;5061145;28;20041;-61
2023/05/18 02:52:26;;;;;;;6.18;2.00;;;7.40;74.80;;;;;;5044243;28;20045;-61
2023/05/18 02:54:55;;;;;;;5.85;2.30;;;7.30;74.80;;;;;;5041458;28;20045;-61
2023/05/18 02:57:32;;;;;;;7.85;2.38;;;7.40;74.60;;;;;;5047965;28;20056;-59
2023/05/18 03:00:10;;;;;;;5.75;2.33;;;7.40;74.40;;;;;;5041188;28;20051;-62
2023/05/18 03:02:39;;;;;;;5.00;2.28;;;7.40;74.40;;;;;;5039686;28;20063;-66
2023/05/18 03:05:07;;;;;;;6.75;2.03;;;7.30;74.60;;;;;;5044143;28;20132;-66
2023/05/18 03:07:35;;;;;;;7.22;2.20;;;7.30;74.60;;;;;;5045109;28;20047;-66
2023/05/18 03:10:03;;;;;;;5.65;1.98;;;7.30;74.60;;;;;;5064646;28;20775;-66
2023/05/18 03:12:31;;;;;;;5.95;2.25;;;7.30;74.70;;;;;;5042407;28;20152;-68
2023/05/18 03:14:58;;;;;;;6.82;2.58;;;7.30;74.80;;;;;;5043921;28;20079;-68
2023/05/18 03:17:25;;;;;;;7.25;2.33;;;7.20;74.90;;;;;;5040341;28;20040;-72
2023/05/18 03:19:52;;;;;;;7.72;2.75;;;7.30;74.80;;;;;;5044371;28;20048;-70
2023/05/18 03:22:19;;;;;;;6.47;2.17;;;7.20;74.80;;;;;;5064205;28;20160;-71
2023/05/18 03:24:50;;;;;;;7.28;2.35;;;7.20;74.80;;;;;;5045325;28;20044;-71
2023/05/18 03:27:19;;;;;;;4.70;1.98;;;7.20;74.70;;;;;;5045985;28;20052;-65
2023/05/18 03:29:46;;;;;;;7.68;2.28;;;7.20;74.80;;;;;;5063696;28;20407;-66
2023/05/18 03:32:13;;;;;;;4.93;2.28;;;7.20;74.60;;;;;;5050244;28;20511;-76
2023/05/18 03:34:40;;;;;;;5.90;2.47;;;7.20;74.50;;;;;;5069354;28;20053;-76
2023/05/18 03:37:07;;;;;;;9.25;2.90;;;7.20;74.50;;;;;;5046781;28;20408;-62
2023/05/18 03:39:34;;;;;;;6.93;2.42;;;7.20;74.70;;;;;;5052293;28;20084;-61
2023/05/18 03:42:02;;;;;;;8.50;2.70;;;7.20;74.80;;;;;;5066534;28;20049;-67
2023/05/18 03:44:29;;;;;;;6.90;2.60;;;7.20;74.90;;;;;;5041243;28;20124;-67
2023/05/18 03:46:56;;;;;;;6.30;2.30;;;7.10;75.10;;;;;;5046210;28;20182;-61
2023/05/18 03:49:23;;;;;;;7.60;2.72;;;7.10;75.10;;;;;;5049275;28;20139;-60
2023/05/18 03:51:53;;;;;;;8.93;2.67;;;7.10;75.00;;;;;;5052756;28;20078;-70
2023/05/18 03:54:20;;;;;;;6.93;2.40;;;7.10;75.00;;;;;;5064355;28;20044;-69
2023/05/18 03:56:47;;;;;;;8.05;2.50;;;7.20;74.70;;;;;;5040171;28;20051;-61
2023/05/18 03:59:15;;;;;;;6.78;1.98;;;7.20;74.40;;;;;;5068366;28;20135;-61
2023/05/18 04:01:43;;;;;;;7.13;2.53;;;7.20;74.40;;;;;;5047478;28;20102;-61
2023/05/18 04:04:16;;;;;;;6.55;2.63;;;7.20;74.40;;;;;;5042089;28;20483;-62
2023/05/18 04:06:45;;;;;;;5.55;2.08;;;7.20;74.40;;;;;;5046555;28;20048;-60
2023/05/18 04:09:13;;;;;;;7.97;2.47;;;7.10;74.60;;;;;;5063578;28;20046;-62
2023/05/18 04:11:42;;;;;;;5.00;2.20;;;7.10;75.00;;;;;;5060482;28;20052;-68
2023/05/18 04:14:11;;;;;;;6.47;2.10;;;7.10;74.90;;;;;;5057306;28;20491;-69
2023/05/18 04:16:39;;;;;;;6.43;2.50;;;7.00;75.20;;;;;;5047557;28;20170;-77
2023/05/18 04:19:09;;;;;;;7.47;2.40;;;7.00;75.40;;;;;;5047498;28;20049;-77
2023/05/18 04:21:36;;;;;;;4.50;1.85;;;7.00;75.30;;;;;;5068760;28;20052;-70
2023/05/18 04:24:05;;;;;;;7.00;2.17;;;7.00;75.30;;;;;;5066125;28;20075;-69
2023/05/18 04:26:35;;;;;;;6.00;2.50;;;6.90;75.60;;;;;;5055919;28;20565;-72
2023/05/18 04:29:02;;;;;;;5.97;2.28;;;6.90;75.70;;;;;;5046411;28;20544;-70
2023/05/18 04:31:29;;;;;;;7.65;2.60;;;7.00;75.50;;;;;;5062687;28;20075;-66
2023/05/18 04:33:59;;;;;;;4.88;2.35;;;7.00;75.50;;;;;;5064250;28;20487;-66
2023/05/18 04:36:29;;;;;;;7.78;2.60;;;7.00;75.40;;;;;;5039472;28;20080;-77
2023/05/18 04:38:58;;;;;;;6.95;2.55;;;7.00;75.50;;;;;;5050492;28;20036;-77
2023/05/18 04:41:25;;;;;;;5.38;2.38;;;7.00;75.50;;;;;;5066690;28;20084;-76
2023/05/18 04:43:52;;;;;;;7.10;2.40;;;7.00;75.60;;;;;;5043400;28;20509;-76
2023/05/18 04:46:21;;;;;;;6.25;2.58;;;7.00;75.60;;;;;;5045184;28;20049;-69
2023/05/18 04:48:48;;;;;;;5.05;2.28;;;7.00;75.70;;;;;;5063715;28;20052;-69
2023/05/18 04:51:20;;;;;;;8.25;2.38;;;7.00;75.80;;;;;;5043336;28;20055;-60
2023/05/18 04:53:48;;;;;;;7.40;2.80;;;7.00;75.80;;;;;;5046658;28;20106;-60
2023/05/18 04:56:16;;;;;;;5.95;2.20;;;7.10;75.60;;;;;;5037415;28;20045;-66
2023/05/18 04:58:44;;;;;;;4.97;2.00;;;7.10;75.40;;;;;;5044163;28;20439;-66
2023/05/18 05:01:14;;;;;;;5.93;2.10;;;7.20;75.30;;;;;;5060564;28;20648;-71
2023/05/18 05:03:41;;;;;;;5.75;2.47;;;7.20;75.40;;;;;;5041108;28;20064;-71
2023/05/18 05:06:08;;;;;;;8.48;2.50;;;7.20;75.20;;;;;;5064987;28;20148;-65
2023/05/18 05:08:37;;;;;;;7.15;2.42;;;7.20;75.20;;;;;;5050251;28;20113;-66
2023/05/18 05:11:04;;;;;;;5.88;2.22;;;7.30;75.00;;;;;;5046638;28;20040;-76
2023/05/18 05:13:31;;;;;;;4.28;2.00;;;7.30;75.10;;;;;;5048340;28;20071;-77
2023/05/18 05:15:58;;;;;;;6.43;2.50;;;7.30;75.40;;;;;;5062234;28;20583;-68
2023/05/18 05:18:26;;;;;;;7.03;2.28;;;7.40;75.10;;;;;;5039497;28;20048;-68
2023/05/18 05:20:54;;;;;;;6.38;2.35;;;7.40;74.90;;;;;;5047667;28;20053;-70
2023/05/18 05:23:21;;;;;;;5.38;2.20;;;7.50;74.80;;;;;;5047682;28;20049;-70
2023/05/18 05:25:50;;;;;;;7.47;2.80;;;7.50;74.70;;;;;;5044960;28;20533;-61
2023/05/18 05:28:17;;;;;;;7.32;2.42;;;7.50;74.70;;;;;;5043855;28;20041;-61
2023/05/18 05:30:44;;;;;;;8.80;2.28;;;7.60;74.80;;;;;;5042025;28;20049;-65
2023/05/18 05:33:11;;;;;;;7.63;2.28;;;7.60;74.60;;;;;;5067708;28;20056;-64
2023/05/18 05:35:38;;;;;;;12.85;2.38;;;7.60;74.60;;;;;;5038053;28;20127;-66
2023/05/18 05:38:05;;;;;;;6.88;2.35;;;7.60;74.40;;;;;;5065361;28;20045;-65
2023/05/18 05:40:33;;;;;;;6.43;2.28;;;7.60;74.60;;;;;;5046021;28;20045;-64
2023/05/18 05:43:01;;;;;;;8.85;2.60;;;7.70;74.60;;;;;;5048188;28;20503;-64
2023/05/18 05:45:28;;;;;;;5.82;2.42;;;7.70;74.40;;;;;;5045553;28;20053;-64
2023/05/18 05:47:58;;;;;;;5.07;1.97;;;7.70;74.30;;;;;;5043925;28;20044;-64
2023/05/18 05:50:26;;;;;;;7.80;2.20;;;7.70;74.30;;;;;;5045724;28;20131;-63
2023/05/18 05:52:56;;;;;;;7.40;1.92;;;7.70;74.60;;;;;;5040909;28;20052;-65
2023/05/18 05:55:25;;;;;;;6.40;2.17;;;7.70;74.30;;;;;;5046555;28;20105;-64
2023/05/18 05:57:52;;;;;;;5.97;2.17;;;7.80;74.20;;;;;;5056702;28;20052;-64
2023/05/18 06:00:22;;;;;;;6.97;2.30;;;7.80;74.10;;;;;;5048237;28;20052;-64
2023/05/18 06:02:52;;;;;;;6.93;2.03;;;7.90;74.20;;;;;;5039790;28;20140;-64
2023/05/18 06:05:26;;;;;;;7.07;2.05;;;7.90;73.90;;;;;;5049135;28;20110;-64
2023/05/18 06:07:54;;;;;;;3.55;1.50;;;7.90;74.20;;;;;;5040491;28;20044;-65
2023/05/18 06:10:21;;;;;;;5.53;2.28;;;7.90;73.90;;;;;;5058274;28;20044;-64
2023/05/18 06:12:48;;;;;;;5.68;2.05;;;8.00;73.90;;;;;;5044814;28;20072;-70
2023/05/18 06:15:15;;;;;;;7.68;2.40;;;8.10;73.90;;;;;;5040902;28;20416;-69
2023/05/18 06:17:44;;;;;;;5.22;2.13;;;8.20;73.40;;;;;;5043724;28;20051;-61
2023/05/18 06:20:12;;;;;;;7.25;2.47;;;8.10;73.10;;;;;;5046040;28;20305;-61
2023/05/18 06:22:40;;;;;;;5.20;1.83;;;8.20;72.90;;;;;;5047534;28;20128;-65
2023/05/18 06:25:39;;;;;;;6.43;2.00;;;8.20;73.20;;;;;;5012435;28;20048;-65
2023/05/18 06:28:23;;;;;;;6.47;2.25;;;8.30;73.10;;;;;;5049055;28;20049;-64
2023/05/18 06:30:56;;;;;;;6.13;1.75;;;8.50;73.20;;;;;;5046206;28;20040;-73
2023/05/18 06:33:37;;;;;;;8.15;2.20;;;8.60;72.90;;;;;;5047775;28;20672;-72
2023/05/18 06:36:05;;;;;;;7.43;2.30;;;8.60;72.90;;;;;;5045603;28;20040;-61
2023/05/18 06:38:32;;;;;;;6.75;2.00;;;8.70;72.70;;;;;;5059874;28;20616;-62
2023/05/18 06:40:59;;;;;;;6.75;2.35;;;8.90;72.40;;;;;;5060902;28;20059;-64
2023/05/18 06:43:27;;;;;;;6.38;2.20;;;9.00;72.50;;;;;;5064218;28;20108;-65
2023/05/18 06:46:21;;;;;;;5.95;2.03;;;9.20;72.10;;;;;;5057828;28;20052;-66
2023/05/18 06:48:51;;;;;;;6.50;2.20;;;9.40;71.70;;;;;;5061098;28;20044;-66
2023/05/18 06:51:19;;;;;;;6.57;2.22;;;9.50;71.80;;;;;;5048535;28;20056;-72
2023/05/18 06:53:49;;;;;;;7.55;2.55;;;9.70;71.40;;;;;;5056930;28;20052;-70
2023/05/18 06:56:17;;;;;;;7.95;2.42;;;9.90;70.60;;;;;;5043235;28;20139;-71
2023/05/18 06:58:46;;;;;;;8.00;2.50;;;10.00;70.10;;;;;;5047390;28;20048;-72
2023/05/18 07:01:16;;;;;;;7.53;2.47;;;10.20;69.60;;;;;;5040715;28;20053;-72
2023/05/18 07:03:44;;;;;;;7.45;2.53;;;10.20;69.30;;;;;;5066376;28;20044;-71
2023/05/18 07:06:12;;;;;;;8.02;2.58;;;10.40;69.00;;;;;;5059225;28;20052;-71
2023/05/18 07:08:39;;;;;;;11.10;3.45;;;10.30;68.60;;;;;;5068310;28;20044;-72
2023/05/18 07:11:08;;;;;;;11.45;3.92;;;10.30;69.30;;;;;;5072028;28;20036;-71
2023/05/18 07:13:35;;;;;;;10.88;3.88;;;10.30;69.40;;;;;;5065280;28;20052;-72
2023/05/18 07:16:02;;;;;;;9.38;3.92;;;10.40;69.40;;;;;;5065803;28;20064;-72
2023/05/18 07:18:29;;;;;;;12.57;3.80;;;10.60;69.10;;;;;;5068382;28;20055;-73
2023/05/18 07:20:56;;;;;;;7.22;3.00;;;10.80;68.80;;;;;;5066398;28;20099;-73
2023/05/18 07:23:24;;;;;;;8.25;2.90;;;10.90;68.70;;;;;;5064193;28;20045;-72
2023/05/18 07:25:51;;;;;;;6.88;2.35;;;11.10;67.90;;;;;;5065911;28;20044;-73
2023/05/18 07:28:18;;;;;;;6.03;2.20;;;11.30;67.40;;;;;;5065106;28;20400;-73
2023/05/18 07:30:45;;;;;;;10.18;2.70;;;11.40;67.00;;;;;;5061749;28;20132;-73
2023/05/18 07:33:12;;;;;;;8.63;2.65;;;11.70;66.10;;;;;;5071048;28;20074;-74
2023/05/18 07:35:39;;;;;;;6.45;2.15;;;11.70;66.00;;;;;;5052392;28;20052;-73
2023/05/18 07:38:06;;;;;;;5.13;1.98;;;11.80;65.80;;;;;;5069932;28;20496;-73
2023/05/18 07:40:35;;;;;;;7.93;1.80;;;11.80;65.40;;;;;;5067681;28;20046;-68
2023/05/18 07:43:02;;;;;;;8.75;1.92;;;12.00;65.20;;;;;;5066738;28;20484;-69
2023/05/18 07:45:29;;;;;;;5.55;1.98;;;12.10;65.70;;;;;;5065089;28;20053;-68
2023/05/18 07:47:56;;;;;;;6.05;2.13;;;12.40;64.70;;;;;;5068672;28;20033;-70
2023/05/18 07:50:38;;;;;;;7.47;2.03;;;12.60;64.00;;;;;;5065353;28;20109;-68
2023/05/18 07:53:05;;;;;;;8.98;1.77;;;12.80;62.70;;;;;;5067137;28;20056;-69
2023/05/18 07:55:34;;;;;;;5.10;2.33;;;13.00;62.40;;;;;;5062486;28;20052;-69
2023/05/18 07:58:01;;;;;;;6.35;2.03;;;13.20;62.20;;;;;;5065387;28;20036;-70
2023/05/18 08:00:29;;;;;;;6.72;1.70;;;13.20;61.60;;;;;;5064939;28;20056;-67
2023/05/18 08:02:56;;;;;;;6.38;2.03;;;13.20;61.90;;;;;;5067882;28;20047;-67
2023/05/18 08:05:22;;;;;;;6.15;1.85;;;13.40;61.00;;;;;;5063936;28;20056;-63
2023/05/18 08:07:50;;;;;;;6.28;1.67;;;13.60;61.10;;;;;;5062060;28;20060;-63
2023/05/18 08:10:16;;;;;;;9.10;2.38;;;13.70;60.40;;;;;;5066344;28;20040;-69
2023/05/18 08:12:45;;;;;;;7.75;1.98;;;13.90;60.30;;;;;;5063802;28;20071;-67
2023/05/18 08:15:12;;;;;;;6.32;1.58;;;14.00;60.10;;;;;;5065661;28;20503;-66
2023/05/18 08:17:39;;;;;;;7.20;1.77;;;14.20;59.80;;;;;;5056976;28;20111;-65
2023/05/18 08:20:09;;;;;;;5.45;1.52;;;14.30;59.90;;;;;;5065309;28;20048;-64
2023/05/18 08:22:36;;;;;;;7.18;1.80;;;14.40;59.10;;;;;;5065178;28;20055;-65
2023/05/18 08:25:03;;;;;;;6.22;1.85;;;14.60;59.00;;;;;;5067603;28;20059;-64
2023/05/18 08:27:30;;;;;;;6.88;1.58;;;14.70;58.00;;;;;;5062661;28;20062;-65
2023/05/18 08:29:58;;;;;;;5.80;1.70;;;14.80;58.00;;;;;;5064916;28;20059;-64
2023/05/18 08:32:25;;;;;;;5.43;1.40;;;14.90;57.90;;;;;;5062374;28;20044;-61
2023/05/18 08:34:53;;;;;;;5.03;1.60;;;15.00;57.40;;;;;;5066839;28;20075;-61
2023/05/18 08:37:20;;;;;;;5.43;1.42;;;15.20;56.30;;;;;;5063200;28;20118;-69
2023/05/18 08:39:47;;;;;;;5.80;1.60;;;15.30;56.80;;;;;;5065850;28;20044;-69
2023/05/18 08:42:21;;;;;;;8.07;1.70;;;15.40;55.50;;;;;;5069521;28;20040;-69
2023/05/18 08:44:56;;;;;;;8.25;1.67;;;15.50;55.80;;;;;;5060890;28;20044;-70
2023/05/18 08:47:25;;;;;;;7.53;1.75;;;15.50;55.50;;;;;;5064443;28;20054;-65
2023/05/18 08:49:53;;;;;;;6.05;1.60;;;15.60;55.70;;;;;;5066097;28;20056;-64
2023/05/18 08:52:25;;;;;;;6.60;2.00;;;15.80;54.70;;;;;;5067057;28;20056;-62
2023/05/18 08:54:52;;;;;;;7.43;1.30;;;15.80;54.50;;;;;;5065875;28;20053;-60
2023/05/18 08:57:22;;;;;;;6.10;1.63;;;15.90;54.80;;;;;;5061886;28;20044;-64
2023/05/18 08:59:52;;;;;;;8.13;1.87;;;16.00;53.70;;;;;;5068302;28;20056;-64
2023/05/18 09:02:19;;;;;;;;;;;16.20;53.80;;;;;;5064478;28;20083;-60
2023/05/18 09:04:48;;;;;;;5.45;1.35;;;16.30;54.10;;;;;;5063726;28;19974;-60
2023/05/18 09:07:17;;;;;;;4.65;1.48;;;16.50;53.80;;;;;;5068757;28;20059;-76
2023/05/18 09:09:45;;;;;;;7.18;1.58;;;16.60;53.50;;;;;;5068224;28;20060;-76
2023/05/18 09:12:14;;;;;;;6.60;1.50;;;16.70;53.50;;;;;;5063144;28;20509;-76
2023/05/18 09:14:43;;;;;;;5.93;1.65;;;16.70;53.20;;;;;;5061816;28;20044;-76
2023/05/18 09:17:10;;;;;;;7.80;1.80;;;16.80;52.80;;;;;;5042918;28;20045;-76
2023/05/18 09:19:40;;;;;;;7.97;1.60;;;16.90;52.60;;;;;;5063360;28;20051;-76
2023/05/18 09:22:08;;;;;;;6.60;1.50;;;17.10;51.50;;;;;;5064556;28;20086;-76
2023/05/18 09:24:45;;;;;;;6.15;1.60;;;17.10;51.40;;;;;;5070538;28;20455;-77
2023/05/18 09:27:16;;;;;;;5.45;1.70;;;17.10;51.00;;;;;;5058762;28;20541;-68
2023/05/18 09:29:53;;;;;;;7.13;2.20;;;17.20;50.30;;;;;;5064914;28;20056;-68
2023/05/18 09:32:21;;;;;;;6.50;2.00;;;17.00;49.10;;;;;;5066551;28;20071;-66
2023/05/18 09:34:48;;;;;;;9.15;2.03;;;17.20;48.10;;;;;;5065027;28;20055;-66
2023/05/18 09:37:18;;;;;;;6.63;1.77;;;17.30;48.70;;;;;;5067940;28;20045;-69
2023/05/18 09:39:46;;;;;;;7.57;1.95;;;17.50;48.30;;;;;;5065327;28;20056;-68
2023/05/18 09:42:13;;;;;;;6.68;2.05;;;17.50;48.90;;;;;;5062560;28;20049;-68
2023/05/18 09:44:39;;;;;;;7.63;2.30;;;17.40;48.20;;;;;;5064106;28;20059;-69
2023/05/18 09:47:10;;;;;;;5.65;1.63;;;17.60;48.60;;;;;;5062357;28;20439;-70
2023/05/18 09:49:37;;;;;;;6.45;1.85;;;17.60;48.80;;;;;;5059328;28;20098;-69
2023/05/18 09:52:08;;;;;;;6.78;1.92;;;17.70;49.20;;;;;;5058609;28;20053;-72
2023/05/18 09:54:37;;;;;;;9.50;2.25;;;17.50;48.20;;;;;;5060703;28;20515;-73
2023/05/18 09:57:08;;;;;;;7.60;2.15;;;17.70;47.90;;;;;;5062496;28;21656;-62
2023/05/18 09:59:36;;;;;;;9.43;1.88;;;17.80;47.90;;;;;;5066450;28;20049;-61
2023/05/18 10:02:07;;;;;;;9.82;1.80;;;18.00;48.20;;;;;;5061876;28;20053;-61
2023/05/18 10:04:38;;;;;;;9.85;2.00;;;18.10;47.90;;;;;;5064352;28;20152;-61
2023/05/18 10:07:11;;;;;;;5.28;1.67;;;17.90;47.50;;;;;;5063339;28;20052;-72
2023/05/18 10:09:40;;;;;;;5.32;1.90;;;18.00;47.30;;;;;;5068688;28;20102;-72
2023/05/18 10:12:11;;;;;;;6.43;1.90;;;18.10;46.00;;;;;;5059610;28;20049;-71
2023/05/18 10:14:39;;;;;;;7.43;2.65;;;18.00;46.10;;;;;;5062722;28;20566;-71
2023/05/18 10:17:07;;;;;;;7.72;2.20;;;17.80;45.80;;;;;;5066128;28;20392;-72
2023/05/18 10:19:35;;;;;;;6.07;1.75;;;17.90;45.50;;;;;;5062080;28;20057;-72
2023/05/18 10:22:03;;;;;;;6.93;1.77;;;18.10;45.90;;;;;;5067553;28;20056;-75
2023/05/18 10:24:32;;;;;;;6.32;2.05;;;18.40;46.40;;;;;;5067684;28;20049;-76
2023/05/18 10:27:04;;;;;;;7.10;1.50;;;18.50;46.40;;;;;;5051744;28;20053;-77
2023/05/18 10:29:33;;;;;;;4.57;1.65;;;18.70;46.30;;;;;;5044273;28;20048;-75
2023/05/18 10:32:03;;;;;;;6.00;1.88;;;18.80;46.60;;;;;;5063537;28;20052;-72
2023/05/18 10:34:30;;;;;;;7.82;1.92;;;18.80;45.60;;;;;;5066011;28;20511;-72
2023/05/18 10:36:59;;;;;;;5.40;1.67;;;18.70;45.00;;;;;;5059908;28;20056;-62
2023/05/18 10:39:27;;;;;;;9.13;2.08;;;18.70;45.30;;;;;;5067046;28;20110;-62
2023/05/18 10:41:55;;;;;;;5.65;1.88;;;18.70;45.10;;;;;;5063156;28;20514;-63
2023/05/18 10:44:24;;;;;;;5.30;2.15;;;18.90;45.20;;;;;;5062381;28;20053;-62
2023/05/18 10:46:51;;;;;;;4.55;1.58;;;18.90;45.50;;;;;;5057339;28;20047;-62
2023/05/18 10:49:23;;;;;;;8.30;1.73;;;18.80;44.50;;;;;;5058312;28;20135;-63
2023/05/18 10:51:54;;;;;;;4.88;1.73;;;18.90;44.90;;;;;;5057244;28;20045;-63
2023/05/18 10:54:22;;;;;;;5.18;1.50;;;19.10;45.10;;;;;;5060107;28;20129;-62
2023/05/18 10:56:52;;;;;;;4.38;1.77;;;19.30;44.90;;;;;;5060899;28;20056;-62
2023/05/18 10:59:22;;;;;;;7.43;1.90;;;19.30;43.90;;;;;;5038624;28;20045;-63
2023/05/18 11:01:53;;;;;;;7.18;1.77;;;19.30;44.00;;;;;;5059857;28;20045;-62
2023/05/18 11:04:24;;;;;;;6.72;2.13;;;19.30;44.30;;;;;;5059210;28;20056;-62
2023/05/18 11:06:58;;;;;;;6.50;2.08;;;19.30;43.40;;;;;;5066455;28;20044;-62
2023/05/18 11:09:26;;;;;;;6.57;2.08;;;19.20;43.50;;;;;;5058453;28;20495;-62
2023/05/18 11:11:56;;;;;;;8.52;2.60;;;19.20;43.90;;;;;;5062746;28;20100;-63
2023/05/18 11:14:27;;;;;;;8.18;2.70;;;19.30;44.40;;;;;;5062888;28;20060;-63
2023/05/18 11:17:15;;;;;;;6.88;2.35;;;19.30;43.80;;;;;;5058023;28;20045;-63
2023/05/18 11:20:14;;;;;;;7.05;3.42;;;19.30;44.20;;;;;;5067690;28;20415;-62
2023/05/18 11:22:46;;;;;;;12.88;5.95;;;19.30;44.00;;;;;;5061772;28;20044;-62
2023/05/18 11:25:44;;;;;;;10.45;5.40;;;19.30;44.20;;;;;;5060277;28;20037;-63
2023/05/18 11:28:13;;;;;;;7.82;3.30;;;19.30;44.10;;;;;;5062084;28;20052;-62
2023/05/18 11:30:48;;;;;;;8.07;2.92;;;19.30;43.20;;;;;;5054073;28;20045;-61
2023/05/18 11:33:22;;;;;;;15.48;5.80;;;19.40;43.00;;;;;;5065984;28;20128;-62
2023/05/18 11:35:56;;;;;;;15.40;9.25;;;19.50;43.60;;;;;;5045421;28;20107;-62
2023/05/18 11:38:27;;;;;;;14.38;7.82;;;19.60;43.10;;;;;;5039088;28;20059;-62
2023/05/18 11:40:59;;;;;;;13.43;5.82;;;19.60;43.60;;;;;;5037992;28;20147;-76
2023/05/18 11:43:26;;;;;;;11.23;5.35;;;19.60;43.90;;;;;;5061705;28;20077;-74
2023/05/18 11:45:54;;;;;;;12.15;5.32;;;19.70;43.50;;;;;;5063265;28;20051;-62
2023/05/18 11:48:23;;;;;;;10.98;6.05;;;19.80;43.70;;;;;;5063399;28;20427;-62
2023/05/18 11:50:53;;;;;;;14.57;7.90;;;19.90;43.50;;;;;;5065386;28;20056;-62
2023/05/18 11:53:24;;;;;;;10.98;5.40;;;19.80;43.10;;;;;;5067643;28;20090;-62
2023/05/18 11:55:53;;;;;;;8.27;3.50;;;19.90;42.30;;;;;;5064493;28;20052;-62
2023/05/18 11:58:21;;;;;;;6.78;2.42;;;19.90;42.20;;;;;;5064214;28;20056;-62
2023/05/18 12:00:49;;;;;;;11.05;4.38;;;19.80;42.60;;;;;;5065944;28;20471;-63
2023/05/18 12:03:16;;;;;;;11.65;5.13;;;19.70;42.70;;;;;;5068159;28;20055;-63
2023/05/18 12:05:48;;;;;;;8.88;3.60;;;19.70;43.00;;;;;;5059628;28;20056;-62
2023/05/18 12:08:18;;;;;;;9.07;3.20;;;19.70;42.90;;;;;;5066490;28;20395;-62
2023/05/18 12:10:46;;;;;;;8.30;2.83;;;19.80;43.20;;;;;;5064524;28;20036;-62
2023/05/18 12:13:13;;;;;;;6.70;3.00;;;19.80;43.50;;;;;;5057992;28;20109;-62
2023/05/18 12:15:42;;;;;;;7.25;2.40;;;19.80;43.30;;;;;;5059162;28;20067;-62
2023/05/18 12:18:09;;;;;;;7.05;2.55;;;19.80;43.10;;;;;;5063643;28;20048;-61
2023/05/18 12:20:39;;;;;;;5.90;2.20;;;19.80;43.00;;;;;;5067111;28;20036;-61
2023/05/18 12:23:08;;;;;;;6.93;2.00;;;19.80;43.70;;;;;;5056957;28;20098;-61
2023/05/18 12:25:35;;;;;;;6.40;2.15;;;19.90;43.40;;;;;;5064231;28;20435;-63
2023/05/18 12:28:03;;;;;;;5.43;1.70;;;20.20;43.40;;;;;;5068583;28;20041;-62
2023/05/18 12:30:34;;;;;;;6.22;1.63;;;20.30;43.00;;;;;;5055906;28;20385;-62
2023/05/18 12:33:02;;;;;;;4.70;1.60;;;20.30;42.90;;;;;;5068623;28;20499;-62
2023/05/18 12:35:29;;;;;;;5.47;1.48;;;20.20;42.10;;;;;;5067322;28;20060;-62
2023/05/18 12:37:59;;;;;;;10.65;3.80;;;20.10;42.90;;;;;;5060001;28;20049;-61
2023/05/18 12:40:28;;;;;;;12.55;5.95;;;19.90;42.40;;;;;;5067222;28;20079;-73
2023/05/18 12:42:58;;;;;;;10.80;5.00;;;19.90;42.50;;;;;;5068453;28;20052;-74
2023/05/18 12:45:26;;;;;;;;;;;20.00;42.40;;;;;;5064541;28;20079;-73
2023/05/18 12:47:54;;;;;;;7.15;2.70;;;20.10;42.80;;;;;;5067093;28;20383;-74
2023/05/18 12:50:21;;;;;;;5.95;2.00;;;20.20;42.40;;;;;;5068392;28;20123;-72
2023/05/18 12:52:49;;;;;;;6.47;1.80;;;20.10;42.10;;;;;;5065546;28;20071;-72
2023/05/18 12:55:20;;;;;;;6.70;2.05;;;20.20;42.30;;;;;;5067141;28;20067;-72
2023/05/18 12:57:59;;;;;;;5.50;1.75;;;20.60;41.70;;;;;;5067376;28;20388;-72
2023/05/18 13:00:26;;;;;;;5.50;1.50;;;20.30;42.00;;;;;;5065875;28;20063;-62
2023/05/18 13:02:54;;;;;;;5.25;1.45;;;20.10;41.90;;;;;;5061579;28;20044;-63